Главная страница
METAR-TAF:

METAR-TAF

Аэропорты :

Джибути, Джибути

широта: 11-33N, долгота: 043-10E, высота над уровнем моря: 49 м

Текущие метеонаблюдения

Эта сводка был подготовлена 3 часа и 32 минут назад, в 08:00 UTC
Ветер 9 Узел от северо-восточный
Температура 35°C
Влажность 56%
Давление 1006 hPa
Видимость: 6000 м
Отдельные облака на высоте 13300 фута
мгла

METAR: HDAM 250800Z 04009KT 6000 HZ SCT133 35/25 Q1006

Время: 14:32 (11:32 UTC)

Прогноз

Эта сводка был подготовлена 6 часа и 32 минут назад, в 05:00 UTC
Прогноз действительный с 25-го 06 UTC до 26-го 06 UTC
Ветер 10 Узел от западный с порывами до 20 Узел
Видимость: 4000 м
изменения
С 25-го 12 UTC до 25-го 15 UTC
Ветер 10 Узел от восточный
Видимость: 8000 м
небольшая облачность на высоте 3000 фута, Кучево-дождевые.

TAF: HDAM 250500Z 2506/2606 28010G20KT 4000 SA/BLDU NSC BECMG 2512/2515 08010KT 8000 FEW030CB

Метеонаблюдения и прогнозы для более 4000 аэропортов (сводки METAR и TAF).

Имеющиеся станции представлены на карте желтыми и красными точками.

Чтобы увидеть название станции, наведите на нее мышь.

Затем щелкните, чтобы увидеть метеонаблюдения и метеопрогнозы.

Управление картой: чтобы увеличить масштаб, щелкните зеленые кнопки с черным крестиком; чтобы уменьшить масштаб, щелкните зеленую кнопку с тире; для просмотра соседних карт щелкайте зеленые стрелки.


METAR-TAF: